Time;durP1;ratioP1;P1;durP2;ratioP2;P2;SDS_P1;SDS_P2;PMS_P1;PMS_P2;Temp;Humidity;BMP_temperature;BMP_pressure;BME280_temperature;BME280_humidity;BME280_pressure;Samples;Min_cycle;Max_cycle;Signal;HPM_P1;HPM_P2
2021/01/07 00:02:24;;;;;;;30.00;15.43;;;2.60;99.90;;;;;;4981941;28;20195;-87
2021/01/07 00:04:49;;;;;;;30.43;14.97;;;2.60;99.90;;;;;;4983276;28;20509;-89
2021/01/07 00:07:15;;;;;;;32.13;16.17;;;2.60;99.90;;;;;;4981822;28;20181;-86
2021/01/07 00:09:41;;;;;;;33.83;17.13;;;2.60;99.90;;;;;;4976653;28;20224;-86
2021/01/07 00:12:07;;;;;;;32.83;15.20;;;2.50;99.90;;;;;;4983790;28;20187;-89
2021/01/07 00:14:33;;;;;;;28.33;14.00;;;2.50;99.90;;;;;;4980698;28;20499;-87
2021/01/07 00:16:59;;;;;;;33.93;15.77;;;2.50;99.90;;;;;;4964533;28;20433;-85
2021/01/07 00:19:24;;;;;;;34.73;15.40;;;2.60;99.90;;;;;;4976131;28;20194;-90
2021/01/07 00:21:50;;;;;;;33.17;16.70;;;2.60;99.90;;;;;;4980253;28;20190;-87
2021/01/07 00:24:16;;;;;;;36.53;16.50;;;2.50;99.90;;;;;;4985667;28;20304;-86
2021/01/07 00:26:41;;;;;;;34.23;14.70;;;2.50;99.90;;;;;;4970743;28;20210;-85
2021/01/07 00:29:07;;;;;;;36.40;16.07;;;2.60;99.90;;;;;;4970312;28;20218;-90
2021/01/07 00:31:33;;;;;;;35.40;16.47;;;2.60;99.90;;;;;;4969712;28;20269;-86
2021/01/07 00:33:58;;;;;;;39.07;17.40;;;2.60;99.90;;;;;;4974488;28;20223;-87
2021/01/07 00:36:24;;;;;;;36.17;18.37;;;2.70;99.90;;;;;;4971462;28;20261;-86
2021/01/07 00:38:50;;;;;;;36.93;16.57;;;2.80;99.90;;;;;;4969626;28;20194;-86
2021/01/07 00:41:20;;;;;;;39.63;17.27;;;2.80;99.90;;;;;;4969338;28;20196;-87
2021/01/07 00:43:49;;;;;;;43.50;16.97;;;2.80;99.90;;;;;;4952702;28;20301;-86
2021/01/07 00:46:16;;;;;;;43.13;18.07;;;2.80;99.90;;;;;;4970100;28;21821;-85
2021/01/07 00:48:42;;;;;;;35.70;15.70;;;2.70;99.90;;;;;;4969763;28;20957;-89
2021/01/07 00:51:08;;;;;;;32.83;17.30;;;2.70;99.90;;;;;;4969338;28;20430;-86
2021/01/07 00:53:35;;;;;;;37.57;17.77;;;2.80;99.90;;;;;;4983866;28;20624;-88
2021/01/07 00:56:01;;;;;;;44.13;17.37;;;2.80;99.90;;;;;;4970871;28;20434;-88
2021/01/07 00:58:27;;;;;;;38.43;18.27;;;2.90;99.90;;;;;;4953091;28;21038;-88
2021/01/07 01:00:53;;;;;;;38.37;16.50;;;2.80;99.90;;;;;;4986024;28;20567;-87
2021/01/07 01:03:21;;;;;;;36.77;18.87;;;2.80;99.90;;;;;;4984561;28;20242;-86
2021/01/07 01:05:50;;;;;;;34.80;17.90;;;2.80;99.90;;;;;;4966787;28;20469;-87
2021/01/07 01:08:17;;;;;;;31.50;16.80;;;2.80;99.90;;;;;;4968850;28;20485;-88
2021/01/07 01:10:46;;;;;;;40.50;15.33;;;2.80;99.90;;;;;;4969480;28;20430;-89
2021/01/07 01:13:12;;;;;;;36.07;17.80;;;2.70;99.90;;;;;;4968396;28;20458;-87
2021/01/07 01:15:38;;;;;;;40.03;17.80;;;2.80;99.90;;;;;;4967322;28;20444;-87
2021/01/07 01:18:05;;;;;;;36.20;18.47;;;2.70;99.90;;;;;;4951980;28;20434;-86
2021/01/07 01:20:30;;;;;;;33.43;17.17;;;2.80;99.90;;;;;;4970184;28;20702;-87
2021/01/07 01:22:56;;;;;;;35.10;17.23;;;2.90;99.90;;;;;;4969869;28;20500;-86
2021/01/07 01:25:22;;;;;;;39.20;16.90;;;2.80;99.90;;;;;;4968309;28;20325;-84
2021/01/07 01:27:47;;;;;;;42.93;16.97;;;2.80;99.90;;;;;;4969940;28;20609;-85
2021/01/07 01:30:14;;;;;;;49.53;17.80;;;2.80;99.90;;;;;;4970336;28;20201;-88
2021/01/07 01:32:42;;;;;;;31.80;16.60;;;2.90;99.90;;;;;;4969699;28;20293;-85
2021/01/07 01:35:09;;;;;;;33.10;14.77;;;2.90;99.90;;;;;;4969686;28;20437;-86
2021/01/07 01:37:36;;;;;;;28.20;15.73;;;2.80;99.90;;;;;;4948828;28;20796;-82
2021/01/07 01:40:04;;;;;;;37.20;16.87;;;2.80;99.90;;;;;;4972876;28;20428;-87
2021/01/07 01:42:29;;;;;;;34.53;15.97;;;2.90;99.90;;;;;;4967235;28;20504;-87
2021/01/07 01:44:55;;;;;;;31.17;14.07;;;2.90;99.90;;;;;;4970417;28;20837;-87
2021/01/07 01:47:21;;;;;;;30.93;15.70;;;2.80;99.90;;;;;;4970389;28;20273;-88
2021/01/07 01:49:52;;;;;;;32.07;18.07;;;3.00;99.90;;;;;;4969771;28;20289;-87
2021/01/07 01:52:23;;;;;;;32.63;17.60;;;3.00;99.90;;;;;;4969807;28;20608;-87
2021/01/07 01:54:48;;;;;;;38.17;17.20;;;2.90;99.90;;;;;;4968330;28;20442;-86
2021/01/07 01:57:16;;;;;;;44.00;17.13;;;3.00;99.90;;;;;;4971506;28;20414;-87
2021/01/07 01:59:42;;;;;;;29.87;16.53;;;3.00;99.90;;;;;;4965766;28;20190;-87
2021/01/07 02:02:10;;;;;;;30.93;14.33;;;3.00;99.90;;;;;;4954902;28;20430;-88
2021/01/07 02:04:36;;;;;;;41.43;18.37;;;2.90;99.90;;;;;;4969314;28;20446;-88
2021/01/07 02:07:03;;;;;;;33.80;16.20;;;2.90;99.90;;;;;;4954200;28;20446;-87
2021/01/07 02:09:29;;;;;;;35.00;16.20;;;3.00;99.90;;;;;;4953022;28;20452;-85
2021/01/07 02:11:58;;;;;;;32.57;17.00;;;3.00;99.90;;;;;;4968379;28;20441;-87
2021/01/07 02:14:26;;;;;;;30.87;15.43;;;2.90;99.90;;;;;;4969151;28;22073;-87
2021/01/07 02:16:53;;;;;;;37.17;17.13;;;2.90;99.90;;;;;;4969200;28;20449;-86
2021/01/07 02:19:19;;;;;;;38.30;17.70;;;2.90;99.90;;;;;;4968289;28;20436;-88
2021/01/07 02:21:45;;;;;;;40.80;18.67;;;2.90;99.90;;;;;;4952424;28;20430;-87
2021/01/07 02:24:12;;;;;;;32.57;16.83;;;2.90;99.90;;;;;;4970932;28;20206;-88
2021/01/07 02:26:37;;;;;;;38.80;17.77;;;2.90;99.90;;;;;;4969177;28;20985;-88
2021/01/07 02:29:03;;;;;;;39.80;16.40;;;2.80;99.90;;;;;;4951144;28;20457;-85
2021/01/07 02:31:30;;;;;;;38.07;16.13;;;2.80;99.90;;;;;;4969145;28;20202;-84
2021/01/07 02:33:55;;;;;;;42.80;19.70;;;2.90;99.90;;;;;;4984622;28;20284;-83
2021/01/07 02:36:21;;;;;;;35.60;17.33;;;2.90;99.90;;;;;;4987278;28;21209;-85
2021/01/07 02:38:46;;;;;;;26.77;15.33;;;2.90;99.90;;;;;;4970025;28;20769;-83
2021/01/07 02:41:12;;;;;;;34.47;15.73;;;3.00;99.90;;;;;;4970917;28;20225;-86
2021/01/07 02:43:39;;;;;;;38.67;18.10;;;2.90;99.90;;;;;;4953938;28;20540;-88
2021/01/07 02:46:05;;;;;;;32.30;15.60;;;2.90;99.90;;;;;;4955087;28;20427;-86
2021/01/07 02:48:30;;;;;;;36.30;18.17;;;2.90;99.90;;;;;;4969860;28;20464;-83
2021/01/07 02:50:56;;;;;;;31.23;15.70;;;2.90;99.90;;;;;;4971576;28;20469;-87
2021/01/07 02:53:22;;;;;;;33.80;17.33;;;2.90;99.90;;;;;;4968459;28;20299;-85
2021/01/07 02:55:47;;;;;;;28.93;15.37;;;2.80;99.90;;;;;;4971517;28;20186;-87
2021/01/07 02:58:13;;;;;;;35.37;15.83;;;2.90;99.90;;;;;;4981588;28;20541;-87
2021/01/07 03:00:39;;;;;;;32.30;16.50;;;2.90;99.90;;;;;;4970019;28;20183;-87
2021/01/07 03:03:06;;;;;;;42.03;18.13;;;2.90;99.90;;;;;;4969348;28;20236;-85
2021/01/07 03:05:32;;;;;;;39.50;17.87;;;2.90;99.90;;;;;;4970457;28;20179;-86
2021/01/07 03:07:57;;;;;;;32.80;16.23;;;2.80;99.90;;;;;;4967182;28;20520;-86
2021/01/07 03:10:23;;;;;;;35.57;16.57;;;2.80;99.90;;;;;;4970515;28;20438;-86
2021/01/07 03:12:49;;;;;;;36.70;16.57;;;2.70;99.90;;;;;;4966504;28;20222;-86
2021/01/07 03:15:14;;;;;;;38.30;19.10;;;2.80;99.90;;;;;;4969842;28;20712;-86
2021/01/07 03:17:40;;;;;;;31.23;15.43;;;2.80;99.90;;;;;;4964935;28;20195;-85
2021/01/07 03:20:13;;;;;;;40.23;16.70;;;2.80;99.90;;;;;;4969848;28;20194;-85
2021/01/07 03:22:40;;;;;;;36.20;17.13;;;2.70;99.90;;;;;;4966694;28;20210;-84
2021/01/07 03:25:10;;;;;;;35.83;16.73;;;2.70;99.90;;;;;;4969298;28;20439;-87
2021/01/07 03:27:37;;;;;;;33.00;18.43;;;2.80;99.90;;;;;;4966060;28;20510;-85
2021/01/07 03:30:06;;;;;;;32.70;18.00;;;2.70;99.90;;;;;;4969833;28;20926;-83
2021/01/07 03:32:32;;;;;;;39.87;18.90;;;2.70;99.90;;;;;;4980383;28;20484;-87
2021/01/07 03:34:58;;;;;;;41.33;18.83;;;2.70;99.90;;;;;;4969889;28;20453;-86
2021/01/07 03:37:23;;;;;;;38.00;18.70;;;2.70;99.90;;;;;;4965805;28;20222;-84
2021/01/07 03:39:49;;;;;;;42.23;18.60;;;2.70;99.90;;;;;;4968311;28;20185;-85
2021/01/07 03:42:15;;;;;;;36.83;17.77;;;2.60;99.90;;;;;;4970631;28;20202;-87
2021/01/07 03:44:40;;;;;;;35.10;17.50;;;2.60;99.90;;;;;;4971444;28;20186;-85
2021/01/07 03:47:06;;;;;;;35.83;19.30;;;2.60;99.90;;;;;;4972307;28;20202;-86
2021/01/07 03:49:32;;;;;;;43.87;18.73;;;2.60;99.90;;;;;;4971585;28;20411;-88
2021/01/07 03:51:57;;;;;;;40.10;18.80;;;2.60;99.90;;;;;;4971199;28;20210;-89
2021/01/07 03:54:23;;;;;;;45.90;19.17;;;2.70;99.90;;;;;;4972892;28;20305;-85
2021/01/07 03:56:49;;;;;;;39.17;17.70;;;2.70;99.90;;;;;;4971966;28;20238;-88
2021/01/07 03:59:14;;;;;;;51.73;19.73;;;2.70;99.90;;;;;;4973715;28;20190;-86
2021/01/07 04:01:40;;;;;;;43.80;19.13;;;2.70;99.90;;;;;;4971821;28;20242;-86
2021/01/07 04:04:06;;;;;;;37.43;17.40;;;2.70;99.90;;;;;;4973860;28;20222;-89
2021/01/07 04:06:31;;;;;;;32.07;18.27;;;2.60;99.90;;;;;;4972254;28;20285;-85
2021/01/07 04:08:57;;;;;;;38.83;18.90;;;2.60;99.90;;;;;;4975570;28;20660;-87
2021/01/07 04:11:23;;;;;;;47.37;18.57;;;2.60;99.90;;;;;;4973718;28;20217;-88
2021/01/07 04:13:48;;;;;;;36.40;17.67;;;2.60;99.90;;;;;;4972166;28;20681;-85
2021/01/07 04:16:14;;;;;;;35.10;17.20;;;2.50;99.90;;;;;;4970042;28;20292;-85
2021/01/07 04:18:40;;;;;;;28.67;15.97;;;2.60;99.90;;;;;;4972791;28;20654;-86
2021/01/07 04:21:06;;;;;;;33.77;17.50;;;2.60;99.90;;;;;;4953895;28;20798;-86
2021/01/07 04:23:31;;;;;;;33.27;17.40;;;2.50;99.90;;;;;;4973723;28;20474;-87
2021/01/07 04:25:57;;;;;;;36.07;17.57;;;2.50;99.90;;;;;;4970798;28;20190;-86
2021/01/07 04:28:23;;;;;;;45.63;20.00;;;2.50;99.90;;;;;;4973953;28;20178;-85
2021/01/07 04:30:49;;;;;;;36.43;16.73;;;2.50;99.90;;;;;;4956561;28;20441;-88
2021/01/07 04:33:15;;;;;;;44.30;18.27;;;2.50;99.90;;;;;;4987995;28;20868;-88
2021/01/07 04:35:40;;;;;;;34.60;16.80;;;2.60;99.90;;;;;;4986134;28;20559;-87
2021/01/07 04:38:06;;;;;;;36.37;18.27;;;2.70;99.90;;;;;;4973372;28;20254;-87
2021/01/07 04:40:32;;;;;;;35.67;18.77;;;2.60;99.90;;;;;;4972651;28;20655;-85
2021/01/07 04:42:58;;;;;;;29.33;15.50;;;2.60;99.90;;;;;;4972091;28;20979;-84
2021/01/07 04:45:24;;;;;;;35.03;17.77;;;2.60;99.90;;;;;;4966767;28;20201;-85
2021/01/07 04:47:50;;;;;;;30.10;16.93;;;2.60;99.90;;;;;;4969863;28;20842;-86
2021/01/07 04:50:16;;;;;;;39.60;18.10;;;2.60;99.90;;;;;;4969802;28;20198;-86
2021/01/07 04:52:42;;;;;;;43.17;20.37;;;2.60;99.90;;;;;;4973530;28;20624;-84
2021/01/07 04:55:11;;;;;;;34.83;16.83;;;2.50;99.90;;;;;;4968383;28;20527;-87
2021/01/07 04:57:37;;;;;;;37.00;17.70;;;2.50;99.90;;;;;;4970530;28;20430;-84
2021/01/07 05:00:08;;;;;;;34.43;16.27;;;2.60;99.90;;;;;;4951119;28;20441;-86
2021/01/07 05:02:34;;;;;;;43.20;18.27;;;2.50;99.90;;;;;;4952798;28;20589;-84
2021/01/07 05:05:02;;;;;;;29.07;16.27;;;2.50;99.90;;;;;;4968443;28;20429;-86
2021/01/07 05:07:28;;;;;;;33.57;16.70;;;2.50;99.90;;;;;;4971299;28;20434;-85
2021/01/07 05:10:08;;;;;;;36.33;16.80;;;2.50;99.90;;;;;;4968288;28;20471;-87
2021/01/07 05:12:35;;;;;;;32.23;15.27;;;2.50;99.90;;;;;;4969726;28;20205;-84
2021/01/07 05:15:00;;;;;;;40.30;19.10;;;2.50;99.90;;;;;;4969408;28;20773;-85
2021/01/07 05:17:26;;;;;;;36.93;16.70;;;2.50;99.90;;;;;;4968272;28;20496;-83
2021/01/07 05:19:52;;;;;;;31.13;15.70;;;2.50;99.90;;;;;;4969429;28;20476;-86
2021/01/07 05:22:18;;;;;;;35.47;16.60;;;2.50;99.90;;;;;;4970367;28;20555;-83
2021/01/07 05:24:44;;;;;;;33.30;17.10;;;2.50;99.90;;;;;;4968056;28;20265;-86
2021/01/07 05:27:15;;;;;;;38.50;17.67;;;2.50;99.90;;;;;;4967960;28;20651;-81
2021/01/07 05:29:41;;;;;;;35.60;15.67;;;2.50;99.90;;;;;;4981762;28;20182;-86
2021/01/07 05:32:09;;;;;;;44.77;17.17;;;2.50;99.90;;;;;;4968644;28;20473;-84
2021/01/07 05:34:47;;;;;;;40.07;16.00;;;2.50;99.90;;;;;;4949914;28;20465;-85
2021/01/07 05:37:19;;;;;;;35.27;15.50;;;2.50;99.90;;;;;;4966420;28;20446;-87
2021/01/07 05:39:48;;;;;;;44.20;16.07;;;2.50;99.90;;;;;;4968152;28;20431;-86
2021/01/07 05:42:14;;;;;;;31.43;17.00;;;2.50;99.90;;;;;;4966070;28;20490;-87
2021/01/07 05:44:49;;;;;;;33.80;17.83;;;2.50;99.90;;;;;;4982123;28;20441;-83
2021/01/07 05:47:29;;;;;;;32.13;16.73;;;2.60;99.90;;;;;;4980660;28;20432;-84
2021/01/07 05:49:56;;;;;;;35.53;18.73;;;2.60;99.90;;;;;;4983880;28;20537;-89
2021/01/07 05:52:22;;;;;;;46.13;20.20;;;2.60;99.90;;;;;;4968490;28;20486;-86
2021/01/07 05:54:52;;;;;;;35.73;18.00;;;2.70;99.90;;;;;;4957876;28;20487;-86
2021/01/07 05:57:21;;;;;;;28.83;15.23;;;2.70;99.90;;;;;;4973797;28;20457;-84
2021/01/07 05:59:50;;;;;;;31.00;16.27;;;2.70;99.90;;;;;;4975088;28;20536;-85
2021/01/07 06:02:17;;;;;;;37.03;18.80;;;2.70;99.90;;;;;;4971978;28;20462;-82
2021/01/07 06:04:43;;;;;;;35.13;18.17;;;2.70;99.90;;;;;;4975160;28;20436;-85
2021/01/07 06:07:11;;;;;;;37.43;16.67;;;2.70;99.90;;;;;;4967570;28;20437;-88
2021/01/07 06:09:37;;;;;;;30.30;16.13;;;2.70;99.90;;;;;;4971443;28;20504;-84
2021/01/07 06:12:03;;;;;;;38.90;17.87;;;2.70;99.90;;;;;;4969538;28;20462;-83
2021/01/07 06:14:29;;;;;;;39.13;14.63;;;2.80;99.90;;;;;;4971497;28;20238;-82
2021/01/07 06:16:58;;;;;;;32.50;16.40;;;2.80;99.90;;;;;;4969911;28;20452;-83
2021/01/07 06:19:35;;;;;;;36.10;17.93;;;2.80;99.90;;;;;;4984820;28;21778;-85
2021/01/07 06:22:07;;;;;;;34.67;17.80;;;2.70;99.90;;;;;;4983937;28;20439;-84
2021/01/07 06:24:36;;;;;;;39.90;16.57;;;2.80;99.90;;;;;;4971170;28;20434;-84
2021/01/07 06:27:22;;;;;;;41.30;16.83;;;2.90;99.90;;;;;;4967727;28;20461;-84
2021/01/07 06:29:48;;;;;;;44.40;17.70;;;2.70;99.90;;;;;;4967898;28;20449;-85
2021/01/07 06:32:17;;;;;;;28.13;15.77;;;2.80;99.90;;;;;;4967813;28;20500;-87
2021/01/07 06:34:48;;;;;;;34.90;15.50;;;2.80;99.90;;;;;;4985681;28;20992;-88
2021/01/07 06:37:35;;;;;;;36.80;17.30;;;2.80;99.90;;;;;;4985494;28;20430;-86
2021/01/07 06:40:06;;;;;;;35.00;17.53;;;2.80;99.90;;;;;;4968968;28;20511;-86
2021/01/07 06:42:38;;;;;;;33.77;17.07;;;2.70;99.90;;;;;;4968858;28;20450;-85
2021/01/07 06:45:05;;;;;;;29.10;15.30;;;2.70;99.90;;;;;;4952197;28;20515;-85
2021/01/07 06:47:31;;;;;;;32.83;14.50;;;2.70;99.90;;;;;;4982610;28;20947;-84
2021/01/07 06:49:58;;;;;;;38.60;17.00;;;2.70;99.90;;;;;;4970711;28;20436;-83
2021/01/07 06:52:25;;;;;;;34.30;15.73;;;2.70;99.90;;;;;;4967668;28;20798;-86
2021/01/07 06:54:54;;;;;;;34.70;17.03;;;2.70;99.90;;;;;;4967294;28;20441;-85
2021/01/07 06:57:20;;;;;;;34.87;17.30;;;2.70;99.90;;;;;;4947254;28;20492;-84
2021/01/07 07:00:00;;;;;;;35.00;18.40;;;2.70;99.90;;;;;;4968639;28;20445;-83
2021/01/07 07:02:27;;;;;;;39.60;16.33;;;2.70;99.90;;;;;;4967345;28;20477;-85
2021/01/07 07:05:02;;;;;;;36.97;16.00;;;2.70;99.90;;;;;;4968606;28;20502;-84
2021/01/07 07:07:30;;;;;;;40.57;17.83;;;2.70;99.90;;;;;;4965998;28;20533;-84
2021/01/07 07:10:18;;;;;;;38.40;17.97;;;2.70;99.90;;;;;;4968281;28;20457;-85
2021/01/07 07:12:51;;;;;;;39.77;16.80;;;2.80;99.90;;;;;;4966913;28;20478;-88
2021/01/07 07:15:18;;;;;;;34.73;14.70;;;2.80;99.90;;;;;;4968913;28;20434;-86
2021/01/07 07:17:47;;;;;;;39.73;16.47;;;2.80;99.90;;;;;;4972008;28;20487;-83
2021/01/07 07:20:25;;;;;;;40.60;17.87;;;2.80;99.90;;;;;;4969904;28;20476;-85
2021/01/07 07:22:52;;;;;;;38.87;16.40;;;2.70;99.90;;;;;;4970556;28;20465;-85
2021/01/07 07:25:27;;;;;;;38.03;16.40;;;2.80;99.90;;;;;;4970488;28;20494;-87
2021/01/07 07:27:54;;;;;;;42.37;17.90;;;2.80;99.90;;;;;;4972032;28;20541;-86
2021/01/07 07:30:28;;;;;;;41.40;18.03;;;2.80;99.90;;;;;;4970826;28;20446;-85
2021/01/07 07:32:55;;;;;;;37.50;17.30;;;2.80;99.90;;;;;;4972857;28;20503;-86
2021/01/07 07:35:23;;;;;;;37.90;17.87;;;2.80;99.90;;;;;;4973360;28;20454;-86
2021/01/07 07:37:49;;;;;;;35.70;18.90;;;2.90;99.90;;;;;;4966176;28;20532;-84
2021/01/07 07:40:36;;;;;;;29.57;15.73;;;2.90;99.90;;;;;;4970617;28;20445;-84
2021/01/07 07:43:03;;;;;;;28.70;14.97;;;2.90;99.90;;;;;;4983277;28;20457;-85
2021/01/07 07:45:31;;;;;;;37.37;16.17;;;2.90;99.90;;;;;;4970367;28;20804;-86
2021/01/07 07:47:58;;;;;;;31.00;16.20;;;2.80;99.90;;;;;;4969829;28;20441;-87
2021/01/07 07:50:28;;;;;;;35.17;15.90;;;2.80;99.90;;;;;;4971022;28;20456;-89
2021/01/07 07:53:13;;;;;;;28.90;14.73;;;2.70;99.90;;;;;;4968586;28;20496;-88
2021/01/07 07:55:40;;;;;;;27.93;15.70;;;2.80;99.90;;;;;;4967608;28;20450;-87
2021/01/07 07:58:18;;;;;;;40.03;16.73;;;2.80;99.90;;;;;;4969368;28;20426;-85
2021/01/07 08:00:57;;;;;;;35.47;16.57;;;2.80;99.90;;;;;;4967525;28;20430;-85
2021/01/07 08:03:31;;;;;;;33.70;16.03;;;2.90;99.90;;;;;;4961555;28;20643;-88
2021/01/07 08:05:59;;;;;;;24.80;13.67;;;2.90;99.90;;;;;;4968830;28;20798;-85
2021/01/07 08:08:30;;;;;;;37.43;16.30;;;2.90;99.90;;;;;;4983001;28;20869;-85
2021/01/07 08:10:57;;;;;;;38.37;16.33;;;2.80;99.90;;;;;;4974611;28;20659;-87
2021/01/07 08:13:25;;;;;;;27.53;14.70;;;2.80;99.90;;;;;;4982606;28;20496;-86
2021/01/07 08:15:55;;;;;;;27.73;13.10;;;2.80;99.90;;;;;;4970071;28;20589;-87
2021/01/07 08:18:26;;;;;;;32.43;15.40;;;2.90;99.90;;;;;;4963890;28;21002;-87
2021/01/07 08:20:53;;;;;;;35.00;16.70;;;2.90;99.90;;;;;;4965690;28;20450;-88
2021/01/07 08:23:21;;;;;;;32.03;14.80;;;2.90;99.90;;;;;;4967629;28;20484;-84
2021/01/07 08:25:51;;;;;;;30.63;15.50;;;2.90;99.90;;;;;;4968440;28;20786;-86
2021/01/07 08:28:27;;;;;;;30.53;14.60;;;2.90;99.90;;;;;;4966358;28;20437;-87
2021/01/07 08:31:11;;;;;;;28.83;16.20;;;2.90;99.90;;;;;;4947032;28;21125;-88
2021/01/07 08:33:37;;;;;;;32.17;15.03;;;3.00;99.90;;;;;;4966728;28;20465;-87
2021/01/07 08:36:07;;;;;;;36.47;15.30;;;3.00;99.90;;;;;;4967052;28;20422;-84
2021/01/07 08:38:34;;;;;;;31.30;15.27;;;3.00;99.90;;;;;;4951786;28;20422;-85
2021/01/07 08:41:21;;;;;;;23.53;11.50;;;3.00;99.90;;;;;;4979438;28;20456;-86
2021/01/07 08:43:51;;;;;;;33.33;14.30;;;3.00;99.90;;;;;;4963867;28;20450;-86
2021/01/07 08:46:19;;;;;;;36.73;16.30;;;3.00;99.90;;;;;;4969492;28;20465;-87
2021/01/07 08:48:56;;;;;;;30.30;15.77;;;3.00;99.90;;;;;;4965288;28;20998;-88
2021/01/07 08:51:22;;;;;;;29.87;14.73;;;3.10;99.90;;;;;;4969699;28;20434;-88
2021/01/07 08:53:51;;;;;;;33.20;17.10;;;3.20;99.90;;;;;;4964201;28;20469;-88
2021/01/07 08:56:37;;;;;;;31.40;16.40;;;3.30;99.90;;;;;;4968985;28;20455;-88
2021/01/07 08:59:25;;;;;;;26.47;15.53;;;3.30;99.90;;;;;;4964125;28;20418;-86
2021/01/07 09:01:56;;;;;;;38.27;16.50;;;3.30;99.90;;;;;;4969710;28;20429;-84
2021/01/07 09:04:24;;;;;;;30.13;14.90;;;3.30;99.90;;;;;;4971490;28;20548;-85
2021/01/07 09:06:54;;;;;;;30.80;15.03;;;3.30;99.90;;;;;;4965579;28;20469;-82
2021/01/07 09:09:20;;;;;;;29.27;14.40;;;3.30;99.90;;;;;;4953946;28;20442;-85
2021/01/07 09:11:45;;;;;;;29.30;14.40;;;3.30;99.90;;;;;;4970638;28;20441;-86
2021/01/07 09:14:11;;;;;;;25.97;14.37;;;3.30;99.90;;;;;;4966044;28;20217;-87
2021/01/07 09:16:36;;;;;;;26.00;14.43;;;3.30;99.90;;;;;;4968556;28;20241;-86
2021/01/07 09:19:06;;;;;;;26.60;14.30;;;3.30;99.90;;;;;;4954462;28;20822;-84
2021/01/07 09:21:35;;;;;;;29.33;14.30;;;3.30;99.90;;;;;;4954304;28;20199;-87
2021/01/07 09:24:00;;;;;;;23.80;14.00;;;3.30;99.90;;;;;;4964604;28;20828;-86
2021/01/07 09:26:28;;;;;;;32.60;15.70;;;3.40;99.90;;;;;;4964352;28;20817;-88
2021/01/07 09:28:53;;;;;;;29.67;14.10;;;3.40;99.90;;;;;;4962171;28;20772;-81
2021/01/07 09:31:19;;;;;;;27.30;13.20;;;3.50;99.90;;;;;;4962932;28;20445;-85
2021/01/07 09:33:44;;;;;;;32.53;15.93;;;3.50;99.90;;;;;;4982555;28;20325;-87
2021/01/07 09:36:10;;;;;;;34.60;16.00;;;3.60;99.90;;;;;;4980433;28;20190;-84
2021/01/07 09:38:36;;;;;;;27.00;13.97;;;3.60;99.90;;;;;;4945803;28;20183;-84
2021/01/07 09:41:01;;;;;;;27.90;13.93;;;3.70;99.90;;;;;;4963050;28;21393;-83
2021/01/07 09:43:27;;;;;;;26.70;14.00;;;3.80;99.90;;;;;;4965898;28;20210;-86
2021/01/07 09:45:53;;;;;;;28.43;13.80;;;3.90;99.90;;;;;;4962091;28;20190;-87
2021/01/07 09:48:18;;;;;;;25.40;14.10;;;3.90;99.90;;;;;;4980919;28;20219;-87
2021/01/07 09:50:44;;;;;;;23.87;13.23;;;3.90;99.90;;;;;;4962739;28;20206;-85
2021/01/07 09:53:10;;;;;;;28.03;15.10;;;3.90;99.90;;;;;;4972696;28;20272;-84
2021/01/07 09:55:36;;;;;;;27.90;14.77;;;4.00;99.90;;;;;;4959965;28;20194;-83
2021/01/07 09:58:01;;;;;;;24.07;12.43;;;4.10;99.90;;;;;;4960797;28;20178;-88
2021/01/07 10:00:27;;;;;;;29.53;15.00;;;4.20;99.90;;;;;;4963270;28;20441;-88
2021/01/07 10:02:53;;;;;;;24.83;14.30;;;4.10;99.90;;;;;;4965233;28;20739;-85
2021/01/07 10:05:18;;;;;;;30.50;16.20;;;4.00;99.90;;;;;;4960559;28;20649;-84
2021/01/07 10:07:44;;;;;;;25.20;13.03;;;4.00;99.90;;;;;;4958101;28;20699;-83
2021/01/07 10:10:10;;;;;;;28.47;16.47;;;4.10;99.90;;;;;;4966619;28;20194;-87
2021/01/07 10:12:36;;;;;;;29.87;15.40;;;4.20;99.90;;;;;;4961166;28;20671;-84
2021/01/07 10:15:02;;;;;;;34.53;16.30;;;4.30;99.90;;;;;;4954591;28;20450;-83
2021/01/07 10:17:28;;;;;;;28.23;14.83;;;4.30;99.90;;;;;;4956255;28;20190;-83
2021/01/07 10:19:53;;;;;;;25.57;15.23;;;4.40;99.90;;;;;;4973246;28;21007;-83
2021/01/07 10:22:22;;;;;;;26.37;14.10;;;4.30;99.90;;;;;;4962470;28;20445;-85
2021/01/07 10:24:48;;;;;;;28.63;15.43;;;4.30;99.90;;;;;;4963163;28;20203;-81
2021/01/07 10:27:16;;;;;;;26.57;14.17;;;4.20;99.90;;;;;;4980223;28;21050;-87
2021/01/07 10:29:42;;;;;;;32.63;14.50;;;4.20;99.90;;;;;;4964451;28;20228;-86
2021/01/07 10:32:10;;;;;;;27.53;14.77;;;4.20;99.90;;;;;;4948101;28;20437;-85
2021/01/07 10:34:42;;;;;;;26.43;15.33;;;4.20;99.90;;;;;;4963775;28;20995;-86
2021/01/07 10:37:09;;;;;;;25.50;13.57;;;4.20;99.90;;;;;;4962669;28;20518;-84
2021/01/07 10:39:42;;;;;;;25.48;15.07;;;4.20;99.90;;;;;;4960231;28;20691;-91
2021/01/07 10:42:13;;;;;;;30.73;15.17;;;4.10;99.90;;;;;;4961513;28;20624;-88
2021/01/07 10:44:41;;;;;;;24.80;14.60;;;4.10;99.90;;;;;;4969916;28;20427;-87
2021/01/07 10:47:09;;;;;;;31.30;15.20;;;4.10;99.90;;;;;;4970519;28;20434;-87
2021/01/07 10:49:37;;;;;;;23.60;12.93;;;4.30;99.90;;;;;;4960355;28;20457;-84
2021/01/07 10:52:36;;;;;;;21.03;12.37;;;4.50;99.90;;;;;;4963005;28;20459;-86
2021/01/07 10:55:18;;;;;;;27.97;13.80;;;4.60;99.90;;;;;;4976861;28;20441;-88
2021/01/07 10:58:14;;;;;;;32.47;15.33;;;4.60;99.90;;;;;;4989185;28;20438;-87
2021/01/07 11:01:06;;;;;;;23.70;13.53;;;4.60;99.90;;;;;;4988996;28;20426;-87
2021/01/07 11:03:56;;;;;;;23.93;13.87;;;4.60;99.90;;;;;;4973309;28;20514;-87
2021/01/07 11:06:26;;;;;;;20.40;12.20;;;4.60;99.90;;;;;;4974486;28;20450;-90
2021/01/07 11:09:21;;;;;;;21.30;13.43;;;4.80;99.90;;;;;;4963667;28;20446;-85
2021/01/07 11:12:23;;;;;;;20.93;12.83;;;4.80;99.90;;;;;;4977030;28;20410;-88
2021/01/07 11:15:12;;;;;;;21.97;12.90;;;4.80;99.90;;;;;;4952375;28;20488;-87
2021/01/07 11:18:14;;;;;;;27.00;13.33;;;4.90;99.90;;;;;;4970880;28;21000;-89
2021/01/07 11:20:56;;;;;;;19.13;11.63;;;5.00;99.90;;;;;;4978245;28;20429;-88
2021/01/07 11:23:37;;;;;;;19.63;12.10;;;5.00;99.90;;;;;;4970455;28;20497;-88
2021/01/07 11:26:10;;;;;;;23.50;12.70;;;5.00;99.90;;;;;;4968336;28;21105;-86
2021/01/07 11:28:44;;;;;;;24.17;13.10;;;5.10;99.90;;;;;;4968070;28;20506;-84
2021/01/07 11:31:14;;;;;;;18.67;10.60;;;5.10;99.90;;;;;;4963534;28;20428;-88
2021/01/07 11:33:42;;;;;;;18.53;11.00;;;5.20;99.90;;;;;;4970719;28;20527;-84
2021/01/07 11:36:20;;;;;;;18.37;10.47;;;5.10;99.90;;;;;;4973873;28;20434;-85
2021/01/07 11:39:00;;;;;;;22.97;12.90;;;5.20;99.90;;;;;;4959700;28;20945;-89
2021/01/07 11:41:48;;;;;;;21.60;11.60;;;5.00;99.90;;;;;;4967324;28;20795;-84
2021/01/07 11:44:26;;;;;;;19.20;11.70;;;5.00;99.90;;;;;;4967260;28;20794;-84
2021/01/07 11:46:52;;;;;;;22.67;12.57;;;4.70;99.90;;;;;;4968987;28;20426;-84
2021/01/07 11:49:19;;;;;;;18.87;11.77;;;4.70;99.90;;;;;;4967618;28;20512;-85
2021/01/07 11:52:03;;;;;;;22.77;12.20;;;4.70;99.90;;;;;;4970101;28;20922;-86
2021/01/07 11:54:33;;;;;;;23.07;12.53;;;4.60;99.90;;;;;;4967785;28;20546;-86
2021/01/07 11:57:03;;;;;;;20.60;12.47;;;4.60;99.90;;;;;;4971109;28;20422;-83
2021/01/07 11:59:30;;;;;;;26.00;11.80;;;4.50;99.90;;;;;;4985327;28;20422;-83
2021/01/07 12:01:56;;;;;;;23.20;11.97;;;4.60;99.90;;;;;;4967707;28;20441;-82
2021/01/07 12:04:24;;;;;;;21.93;11.73;;;4.40;99.90;;;;;;4971098;28;20675;-85
2021/01/07 12:07:04;;;;;;;20.20;12.00;;;4.30;99.90;;;;;;4969807;28;20442;-84
2021/01/07 12:09:40;;;;;;;21.67;12.03;;;4.40;99.90;;;;;;4971300;28;20510;-83
2021/01/07 12:12:14;;;;;;;21.20;11.87;;;4.60;99.90;;;;;;4951763;28;20441;-83
2021/01/07 12:14:47;;;;;;;19.40;10.77;;;4.70;99.90;;;;;;4967884;28;20920;-84
2021/01/07 12:17:14;;;;;;;17.60;10.13;;;4.80;99.90;;;;;;4971228;28;20509;-84
2021/01/07 12:19:41;;;;;;;19.43;10.50;;;4.90;99.90;;;;;;4970593;28;20438;-82
2021/01/07 12:22:08;;;;;;;18.47;10.27;;;5.00;99.90;;;;;;4972219;28;20414;-83
2021/01/07 12:24:35;;;;;;;20.90;10.70;;;5.10;99.90;;;;;;4972704;28;20434;-83
2021/01/07 12:27:02;;;;;;;17.27;10.77;;;5.20;99.90;;;;;;4955018;28;20434;-82
2021/01/07 12:29:28;;;;;;;18.30;10.53;;;5.20;99.90;;;;;;4981243;28;20430;-86
2021/01/07 12:32:02;;;;;;;20.87;11.37;;;5.40;99.90;;;;;;4956661;28;21866;-84
2021/01/07 12:34:56;;;;;;;21.00;12.00;;;5.30;99.90;;;;;;4967750;28;20481;-86
2021/01/07 12:37:23;;;;;;;21.00;11.10;;;5.30;99.90;;;;;;4985338;28;20430;-84
2021/01/07 12:40:06;;;;;;;25.93;12.20;;;5.20;99.90;;;;;;4967421;28;20437;-85
2021/01/07 12:42:36;;;;;;;19.23;11.33;;;5.10;99.90;;;;;;4964336;28;20991;-83
2021/01/07 12:45:03;;;;;;;17.33;11.90;;;5.10;99.90;;;;;;4966575;28;20532;-83
2021/01/07 12:47:29;;;;;;;18.40;9.30;;;5.10;99.90;;;;;;4980478;28;20473;-84